WetterOnline ( https://www.wetteronline.de )

Wetter aktuell Rostock

Aktuelles Wetter: Rostock-Warnemünde (10m)

6-stündlich | Neueste Meldungen
Ortszeit Temperatur Wetter
Mo, 19.08. 2:00 15.0° C wolkenlos
So, 18.08. 20:00 17.6° C bewölkt
So, 18.08. 14:00 19.8° C Sprühregen
So, 18.08. 8:00 18.1° C bewölkt
So, 18.08. 2:00 18.1° C leichter Regen
Sa, 17.08. 20:00 20.3° C bewölkt
Sa, 17.08. 14:00 20.9° C bedeckt
Sa, 17.08. 8:00 16.1° C leichter Regen
Ortszeit Temperatur Wetter
Mo, 19.08. 5:00 14.7° C wolkig
Mo, 19.08. 4:50 14.7° C wolkig
Mo, 19.08. 4:40 14.8° C wolkig
Mo, 19.08. 4:30 14.8° C wolkig
Mo, 19.08. 4:20 14.8° C wolkig
Mo, 19.08. 4:10 14.8° C wolkig
Mo, 19.08. 4:00 14.5° C wolkig
Mo, 19.08. 3:30 14.5° C wolkig
Mo, 19.08. 3:00 14.7° C leicht bewölkt
Mo, 19.08. 2:30 15.0° C wolkenlos
Mo, 19.08. 2:00 15.0° C wolkenlos
Ortszeit Relative Feuchte Sichtweite
Mo, 19.08. 2:00 91% 17 km
So, 18.08. 20:00 86% 23 km
So, 18.08. 14:00 88% 8 km
So, 18.08. 8:00 91% 19 km
So, 18.08. 2:00 91% 5.0 km
Sa, 17.08. 20:00 77% 21 km
Sa, 17.08. 14:00 65% 24 km
Sa, 17.08. 8:00 76% 16 km
Ortszeit Relative Feuchte Sichtweite
Mo, 19.08. 5:00 94% 9 km
Mo, 19.08. 4:50 94% -
Mo, 19.08. 4:40 94% -
Mo, 19.08. 4:30 94% 8 km
Mo, 19.08. 4:20 94% -
Mo, 19.08. 4:10 94% -
Mo, 19.08. 4:00 94% 9 km
Mo, 19.08. 3:30 94% 9 km
Mo, 19.08. 3:00 93% 9 km
Mo, 19.08. 2:30 92% 16 km
Mo, 19.08. 2:00 91% 17 km
Ortszeit Niederschlagsmenge Niederschlagsart
Mo, 19.08. 2:00 0.0 l/m2 in 6 Std. -
So, 18.08. 20:00 4 l/m2 in 12 Std. Regen
So, 18.08. 14:00 3 l/m2 in 6 Std. Regen
So, 18.08. 8:00 0.6 l/m2 in 12 Std. Regen
So, 18.08. 2:00 0.6 l/m2 in 6 Std. Regen
Sa, 17.08. 20:00 0.8 l/m2 in 12 Std. Regen
Sa, 17.08. 14:00 0.5 l/m2 in 6 Std. Regen
Sa, 17.08. 8:00 0.1 l/m2 in 12 Std. Regen
Ortszeit Niederschlagsmenge Niederschlagsart
Mo, 19.08. 5:00 0.0 l/m2 in 1 Std. -
Mo, 19.08. 4:50 keine Meldung -
Mo, 19.08. 4:40 keine Meldung -
Mo, 19.08. 4:30 0.0 l/m2 in 1 Std. -
Mo, 19.08. 4:20 keine Meldung -
Mo, 19.08. 4:10 keine Meldung -
Mo, 19.08. 4:00 0.0 l/m2 in 1 Std. -
Mo, 19.08. 3:30 0.0 l/m2 in 1 Std. -
Mo, 19.08. 3:00 0.0 l/m2 in 1 Std. -
Mo, 19.08. 2:30 0.0 l/m2 in 1 Std. -
Mo, 19.08. 2:00 0.0 l/m2 in 1 Std. -
Ortszeit Stärke Spitze Richtung
km/h Bft. km/h Grad Sektor
Mo, 19.08. 2:00 11 2 33 220° SW
So, 18.08. 20:00 15 3 33 260° W
So, 18.08. 14:00 7 2 22 170° S
So, 18.08. 8:00 7 2 22 180° S
So, 18.08. 2:00 7 2 22 200° S
Sa, 17.08. 20:00 7 2 36 190° S
Sa, 17.08. 14:00 18 3 29 190° S
Sa, 17.08. 8:00 11 2 29 170° S
Ortszeit Stärke Spitze Richtung
km/h Bft. km/h Grad Sektor
Mo, 19.08. 5:00 7 2 19 170° S
Mo, 19.08. 4:50 7 2 - 170° S
Mo, 19.08. 4:40 9 2 - 170° S
Mo, 19.08. 4:30 7 2 14 170° S
Mo, 19.08. 4:20 7 2 - 170° S
Mo, 19.08. 4:10 9 2 - 170° S
Mo, 19.08. 4:00 11 2 19 200° S
Mo, 19.08. 3:30 11 2 18 210° SW
Mo, 19.08. 3:00 11 2 22 210° SW
Mo, 19.08. 2:30 11 2 22 230° SW
Mo, 19.08. 2:00 11 2 22 220° SW
Ortszeit Untergrenze Bedeckung Gattung
total tief tief mittel hoch
Mo, 19.08. 2:00 - 0/8 0/8 - - -
So, 18.08. 20:00 480 m 8/8 7/8 - - -
So, 18.08. 14:00 450 m 8/8 8/8 - - -
So, 18.08. 8:00 1500 m 8/8 7/8 - - -
So, 18.08. 2:00 1140 m 8/8 8/8 - - -
Sa, 17.08. 20:00 1200 m 7/8 7/8 - - -
Sa, 17.08. 14:00 930 m 8/8 8/8 - - -
Sa, 17.08. 8:00 1800 m 7/8 7/8 - - -
Ortszeit Bedeckungsgrad in Achtel und Wolkenuntergrenze
Mo, 19.08. 5:00 8(7800m)
Mo, 19.08. 4:50 8(7800m)
Mo, 19.08. 4:40 8(8100m)
Mo, 19.08. 4:30 8(8100m)
Mo, 19.08. 4:20 8(8100m)
Mo, 19.08. 4:10 8(8100m)
Mo, 19.08. 4:00 8(7800m)
Mo, 19.08. 3:30 7(8400m) 8(9000m)
Mo, 19.08. 3:00 4(8400m) 6(9000m) 6(9000m)
Mo, 19.08. 2:30 1(8400m)
Mo, 19.08. 2:00 keine Wolken
Ortszeit Luftdruck NN (hPa) Tendenz (hPa in 3 Std.)
Mo, 19.08. 2:00 1009 + 1,6
So, 18.08. 20:00 1005 + 0,9
So, 18.08. 14:00 1005 - 0,9
So, 18.08. 8:00 1006 - 0,3
So, 18.08. 2:00 1007 - 0,1
Sa, 17.08. 20:00 1007 - 0,2
Sa, 17.08. 14:00 1008 - 1,1
Sa, 17.08. 8:00 1010 - 0,8
Ortszeit Luftdruck NN (hPa) Tendenz (hPa in 3 Std.)
Mo, 19.08. 5:00 1010 + 1,3
Mo, 19.08. 4:50 1010 keine Meldung
Mo, 19.08. 4:40 1010 keine Meldung
Mo, 19.08. 4:30 1010 + 1,5
Mo, 19.08. 4:20 1010 keine Meldung
Mo, 19.08. 4:10 1010 keine Meldung
Mo, 19.08. 4:00 1010 + 1,2
Mo, 19.08. 3:30 1010 + 1,2
Mo, 19.08. 3:00 1010 + 1,5
Mo, 19.08. 2:30 1009 + 1,7
Mo, 19.08. 2:00 1009 + 1,6
Ortszeit Schneehöhe (cm)
Mo, 19.08. 2:00 -
So, 18.08. 20:00 -
So, 18.08. 14:00 -
So, 18.08. 8:00 -
So, 18.08. 2:00 -
Sa, 17.08. 20:00 -
Sa, 17.08. 14:00 -
Sa, 17.08. 8:00 -
Ortszeit Schneehöhe (cm)
Mo, 19.08. 5:00 -
Mo, 19.08. 4:50 -
Mo, 19.08. 4:40 -
Mo, 19.08. 4:30 -
Mo, 19.08. 4:20 -
Mo, 19.08. 4:10 -
Mo, 19.08. 4:00 -
Mo, 19.08. 3:30 -
Mo, 19.08. 3:00 -
Mo, 19.08. 2:30 -
Mo, 19.08. 2:00 -
Link zu dieser Seite / Seite empfehlen

Das Wetter in ...